Time;durP1;ratioP1;P1;durP2;ratioP2;P2;SDS_P1;SDS_P2;PMS_P1;PMS_P2;Temp;Humidity;BMP_temperature;BMP_pressure;BME280_temperature;BME280_humidity;BME280_pressure;Samples;Min_cycle;Max_cycle;Signal;HPM_P1;HPM_P2
2021/11/12 00:13:11;;;;;;;136.70;45.03;;;-0.90;99.90;;;;;;4108368;28;20320;-65
2021/11/12 00:15:13;;;;;;;172.57;43.07;;;-0.90;99.90;;;;;;4108548;28;20847;-63
2021/11/12 00:17:15;;;;;;;179.13;47.33;;;-0.80;99.90;;;;;;4108117;28;20698;-64
2021/11/12 00:19:16;;;;;;;130.00;39.43;;;-0.80;99.90;;;;;;4109757;28;20950;-64
2021/11/12 00:21:17;;;;;;;167.97;43.37;;;-0.90;99.90;;;;;;4108061;28;20265;-63
2021/11/12 00:23:20;;;;;;;139.77;43.83;;;-0.90;99.90;;;;;;4108576;28;20289;-63
2021/11/12 00:25:21;;;;;;;290.47;68.43;;;-0.80;99.90;;;;;;4115665;28;20752;-63
2021/11/12 00:27:25;;;;;;;176.13;49.17;;;-0.90;99.90;;;;;;4125429;28;21011;-63
2021/11/12 00:29:27;;;;;;;165.17;40.83;;;-0.90;99.90;;;;;;4124080;28;20331;-63
2021/11/12 00:35:56;;;;;;;146.35;35.83;;;-0.90;99.90;;;;;;4123888;28;20284;-63
2021/11/12 00:38:04;;;;;;;151.17;38.03;;;-1.00;99.90;;;;;;4123798;28;20088;-64
2021/11/12 00:40:20;;;;;;;153.90;39.50;;;-1.00;99.90;;;;;;4123921;28;20681;-64
2021/11/12 00:45:02;;;;;;;158.88;39.60;;;-1.00;99.90;;;;;;4125120;28;20268;-66
2021/11/12 00:49:07;;;;;;;175.65;37.05;;;-1.10;99.90;;;;;;4109113;28;20292;-64
2021/11/12 00:51:11;;;;;;;175.67;39.47;;;-1.20;99.90;;;;;;4108168;28;20043;-63
2021/11/12 00:55:16;;;;;;;98.67;31.67;;;-1.30;99.90;;;;;;4107913;28;20328;-62
2021/11/12 00:57:17;;;;;;;159.20;37.47;;;-1.30;99.90;;;;;;4108783;28;20315;-62
2021/11/12 00:59:19;;;;;;;108.50;31.23;;;-1.20;99.90;;;;;;4122023;28;20276;-63
2021/11/12 01:01:21;;;;;;;169.93;36.50;;;-1.30;99.90;;;;;;4124405;28;20744;-62
2021/11/12 01:03:24;;;;;;;208.30;39.37;;;-1.30;99.90;;;;;;4125039;28;20322;-60
2021/11/12 01:05:26;;;;;;;136.23;37.20;;;-1.40;99.90;;;;;;4123633;28;20264;-62
2021/11/12 01:07:27;;;;;;;136.63;35.40;;;-1.40;99.90;;;;;;4125591;28;20338;-62
2021/11/12 01:09:28;;;;;;;151.73;35.30;;;-1.40;99.90;;;;;;4112990;28;20296;-64
2021/11/12 01:11:30;;;;;;;92.17;31.70;;;-1.50;99.90;;;;;;4109994;28;20289;-62
2021/11/12 01:13:32;;;;;;;138.10;34.17;;;-1.40;99.90;;;;;;4107940;28;20269;-63
2021/11/12 01:15:34;;;;;;;140.50;35.50;;;-1.50;99.90;;;;;;4108639;28;20328;-62
2021/11/12 01:17:35;;;;;;;153.93;33.13;;;-1.50;99.90;;;;;;4107647;28;20277;-64
2021/11/12 01:19:37;;;;;;;149.87;35.43;;;-1.50;99.90;;;;;;4109043;28;20289;-62
2021/11/12 01:21:39;;;;;;;150.13;33.93;;;-1.60;99.90;;;;;;4107898;28;20315;-64
2021/11/12 01:23:42;;;;;;;170.10;39.00;;;-1.50;99.90;;;;;;4108307;28;20340;-61
2021/11/12 01:25:44;;;;;;;263.27;44.60;;;-1.60;99.90;;;;;;4107660;28;20264;-62
2021/11/12 01:27:46;;;;;;;202.37;41.00;;;-1.60;99.90;;;;;;4108348;28;20285;-63
2021/11/12 01:29:47;;;;;;;163.13;43.47;;;-1.60;99.90;;;;;;4108398;28;20323;-66
2021/11/12 01:31:48;;;;;;;176.33;40.13;;;-1.50;99.90;;;;;;4121672;28;20350;-63
2021/11/12 01:33:49;;;;;;;226.73;41.97;;;-1.60;99.90;;;;;;4124266;28;20307;-62
2021/11/12 01:35:51;;;;;;;168.83;39.10;;;-1.50;99.90;;;;;;4123627;28;20272;-62
2021/11/12 01:37:54;;;;;;;216.23;40.43;;;-1.40;99.90;;;;;;4124364;28;20323;-62
2021/11/12 01:39:59;;;;;;;189.87;41.87;;;-1.50;99.90;;;;;;4122387;28;20280;-62
2021/11/12 01:42:00;;;;;;;279.60;45.90;;;-1.40;99.90;;;;;;4124270;28;20614;-61
2021/11/12 01:44:05;;;;;;;87.17;30.77;;;-1.40;99.90;;;;;;4123696;28;20264;-63
2021/11/12 01:50:23;;;;;;;103.70;33.63;;;-1.70;99.90;;;;;;4113351;28;20289;-63
2021/11/12 01:52:44;;;;;;;126.60;34.20;;;-1.70;99.90;;;;;;4110384;28;20272;-65
2021/11/12 01:55:04;;;;;;;112.35;32.72;;;-1.70;99.90;;;;;;4111792;28;20269;-63
2021/11/12 01:59:25;;;;;;;93.05;31.30;;;-1.70;99.90;;;;;;4111615;28;20358;-62
2021/11/12 02:01:26;;;;;;;99.60;34.93;;;-1.60;99.90;;;;;;4110725;28;20093;-62
2021/11/12 02:03:28;;;;;;;115.13;34.07;;;-1.60;99.90;;;;;;4111457;28;20790;-62
2021/11/12 02:05:29;;;;;;;134.40;31.83;;;-1.50;99.90;;;;;;4110292;28;20320;-62
2021/11/12 02:07:35;;;;;;;144.60;35.37;;;-1.50;99.90;;;;;;4111367;28;20737;-67
2021/11/12 02:09:36;;;;;;;151.30;39.60;;;-1.50;99.90;;;;;;4110245;28;20436;-63
2021/11/12 02:11:38;;;;;;;145.83;37.30;;;-1.60;99.90;;;;;;4111667;28;20362;-62
2021/11/12 02:13:41;;;;;;;127.23;38.40;;;-1.60;99.90;;;;;;4109382;28;20733;-61
2021/11/12 02:15:43;;;;;;;141.50;38.83;;;-1.70;99.90;;;;;;4111308;28;20937;-62
2021/11/12 02:17:53;;;;;;;116.60;39.50;;;-1.60;99.90;;;;;;4109793;28;20339;-63
2021/11/12 02:20:01;;;;;;;170.67;47.60;;;-1.60;99.90;;;;;;4111067;28;20745;-64
2021/11/12 02:22:10;;;;;;;177.77;49.60;;;-1.50;99.90;;;;;;4110179;28;20265;-61
2021/11/12 02:24:13;;;;;;;120.70;42.93;;;-1.50;99.90;;;;;;4110872;28;20272;-61
2021/11/12 02:26:21;;;;;;;131.30;39.27;;;-1.40;99.90;;;;;;4110523;28;20287;-61
2021/11/12 02:28:25;;;;;;;327.87;61.27;;;-1.40;99.90;;;;;;4126765;28;20264;-62
2021/11/12 02:30:32;;;;;;;193.47;61.47;;;-1.30;99.90;;;;;;4125841;28;20276;-62
2021/11/12 02:32:33;;;;;;;155.93;57.97;;;-1.40;99.90;;;;;;4127048;28;21023;-62
2021/11/12 02:34:34;;;;;;;152.43;52.83;;;-1.30;99.90;;;;;;4126789;28;20668;-62
2021/11/12 02:36:36;;;;;;;125.77;46.77;;;-1.30;99.90;;;;;;4125714;28;20780;-66
2021/11/12 02:38:42;;;;;;;143.27;46.53;;;-1.30;99.90;;;;;;4126944;28;20272;-63
2021/11/12 02:40:43;;;;;;;133.57;42.13;;;-1.30;99.90;;;;;;4125488;28;20827;-61
2021/11/12 02:42:45;;;;;;;127.57;42.77;;;-1.30;99.90;;;;;;4127488;28;20335;-63
2021/11/12 02:44:46;;;;;;;118.73;42.40;;;-1.30;99.90;;;;;;4125441;28;20295;-62
2021/11/12 02:46:48;;;;;;;210.97;57.73;;;-1.30;99.90;;;;;;4126747;28;20350;-60
2021/11/12 02:48:50;;;;;;;224.23;52.20;;;-1.30;99.90;;;;;;4118891;28;21191;-64
2021/11/12 02:50:51;;;;;;;167.03;42.90;;;-1.40;99.90;;;;;;4110625;28;21286;-63
2021/11/12 02:52:59;;;;;;;119.53;40.97;;;-1.50;99.90;;;;;;4109249;28;20336;-63
2021/11/12 02:55:00;;;;;;;124.90;38.53;;;-1.50;99.90;;;;;;4111053;28;20312;-62
2021/11/12 02:57:03;;;;;;;132.57;40.67;;;-1.50;99.90;;;;;;4125109;28;20809;-62
2021/11/12 02:59:10;;;;;;;113.70;37.23;;;-1.50;99.90;;;;;;4126296;28;20311;-58
2021/11/12 03:01:12;;;;;;;131.47;40.87;;;-1.60;99.90;;;;;;4115634;28;20331;-61
2021/11/12 03:03:13;;;;;;;167.73;43.07;;;-1.60;99.90;;;;;;4110329;28;20304;-64
2021/11/12 03:05:14;;;;;;;114.17;28.80;;;-1.60;99.90;;;;;;4109529;28;20299;-63
2021/11/12 03:07:16;;;;;;;161.63;28.10;;;-1.70;99.90;;;;;;4109847;28;20929;-61
2021/11/12 03:09:22;;;;;;;92.10;24.27;;;-1.80;99.90;;;;;;4115094;28;20775;-63
2021/11/12 03:11:23;;;;;;;184.40;28.50;;;-1.90;99.90;;;;;;4125746;28;20331;-63
2021/11/12 03:13:25;;;;;;;150.00;26.17;;;-1.90;99.90;;;;;;4125885;28;20756;-65
2021/11/12 03:15:27;;;;;;;145.40;26.33;;;-2.00;99.90;;;;;;4125310;28;20318;-65
2021/11/12 03:17:28;;;;;;;98.37;24.60;;;-2.00;99.90;;;;;;4126320;28;20729;-63
2021/11/12 03:19:30;;;;;;;156.57;24.57;;;-2.00;99.90;;;;;;4125196;28;20861;-63
2021/11/12 03:21:33;;;;;;;98.70;24.03;;;-2.00;99.90;;;;;;4125844;28;20284;-63
2021/11/12 03:24:00;;;;;;;93.80;23.60;;;-2.00;99.90;;;;;;4124768;28;20676;-63
2021/11/12 03:31:17;;;;;;;158.73;26.23;;;-2.00;99.90;;;;;;4126906;28;20296;-62
2021/11/12 04:00:50;;;;;;;138.77;30.02;;;-2.00;99.90;;;;;;4125595;28;20326;-62
2021/11/12 04:03:05;;;;;;;137.87;27.07;;;-2.00;99.90;;;;;;4122085;28;20042;-62
2021/11/12 04:19:25;;;;;;;121.80;23.37;;;-2.40;99.90;;;;;;4124615;28;20334;-65
2021/11/12 04:40:31;;;;;;;90.37;22.33;;;-2.50;99.90;;;;;;4125335;28;20315;-63
2021/11/12 05:44:38;;;;;;;75.93;18.03;;;-3.00;99.90;;;;;;4136651;28;20334;-60
2021/11/12 05:55:40;;;;;;;44.08;18.75;;;-3.00;99.90;;;;;;4109781;28;20335;-61
2021/11/12 05:57:41;;;;;;;47.67;18.13;;;-3.00;99.90;;;;;;4110057;28;20047;-62
2021/11/12 05:59:43;;;;;;;53.23;19.70;;;-3.00;99.90;;;;;;4109860;28;20315;-61
2021/11/12 06:01:46;;;;;;;62.20;17.40;;;-3.00;99.90;;;;;;4109949;28;20339;-63
2021/11/12 06:03:47;;;;;;;60.07;18.13;;;-3.00;99.90;;;;;;4108951;28;20762;-62
2021/11/12 06:05:48;;;;;;;57.17;17.93;;;-3.10;99.90;;;;;;4110466;28;20269;-61
2021/11/12 06:07:50;;;;;;;48.33;18.83;;;-3.10;99.90;;;;;;4109230;28;20343;-62
2021/11/12 06:09:51;;;;;;;64.33;20.87;;;-3.00;99.90;;;;;;4110393;28;20292;-61
2021/11/12 06:11:56;;;;;;;56.33;19.17;;;-3.00;99.90;;;;;;4109247;28;20328;-62
2021/11/12 06:13:58;;;;;;;68.50;19.40;;;-3.00;99.90;;;;;;4110925;28;20277;-60
2021/11/12 06:15:59;;;;;;;139.37;22.67;;;-3.10;99.90;;;;;;4109093;28;20277;-61
2021/11/12 06:18:01;;;;;;;73.70;19.53;;;-3.20;99.90;;;;;;4110420;28;20277;-61
2021/11/12 06:20:03;;;;;;;57.93;18.37;;;-3.20;99.90;;;;;;4109813;28;20311;-61
2021/11/12 06:22:04;;;;;;;57.47;19.90;;;-3.20;99.90;;;;;;4110000;28;20277;-62
2021/11/12 06:24:06;;;;;;;73.57;20.20;;;-3.20;99.90;;;;;;4109755;28;20276;-61
2021/11/12 06:26:08;;;;;;;97.63;17.85;;;-3.20;99.90;;;;;;4109546;28;20332;-61
2021/11/12 06:28:09;;;;;;;96.50;20.20;;;-3.20;99.90;;;;;;4109978;28;20046;-62
2021/11/12 06:30:11;;;;;;;92.37;18.90;;;-3.20;99.90;;;;;;4114944;28;20649;-63
2021/11/12 06:32:13;;;;;;;143.13;22.73;;;-3.30;99.90;;;;;;4122966;28;20779;-62
2021/11/12 06:34:15;;;;;;;87.97;18.40;;;-3.30;99.90;;;;;;4127469;28;20676;-66
2021/11/12 06:36:18;;;;;;;246.27;27.10;;;-3.30;99.90;;;;;;4126713;28;20326;-63
2021/11/12 06:38:23;;;;;;;48.27;19.00;;;-3.40;99.90;;;;;;4125079;28;20331;-62
2021/11/12 06:40:24;;;;;;;106.53;22.60;;;-3.40;99.90;;;;;;4126621;28;20284;-64
2021/11/12 06:42:28;;;;;;;100.87;22.77;;;-3.40;99.90;;;;;;4118993;28;20760;-62
2021/11/12 06:44:55;;;;;;;98.23;22.20;;;-3.40;99.90;;;;;;4114230;28;20276;-62
2021/11/12 06:51:19;;;;;;;49.13;20.90;;;-3.40;99.90;;;;;;4114867;28;20101;-60
2021/11/12 06:53:21;;;;;;;59.40;20.30;;;-3.30;99.90;;;;;;4114065;28;20120;-65
2021/11/12 06:55:22;;;;;;;74.37;23.07;;;-3.30;99.90;;;;;;4112667;28;20267;-61
2021/11/12 06:57:23;;;;;;;63.57;23.27;;;-3.30;99.90;;;;;;4113895;28;20757;-59
2021/11/12 06:59:25;;;;;;;54.77;21.20;;;-3.30;99.90;;;;;;4111286;28;20280;-62
2021/11/12 07:01:27;;;;;;;58.53;21.03;;;-3.20;99.90;;;;;;4113859;28;20772;-62
2021/11/12 07:03:28;;;;;;;81.13;22.00;;;-3.20;99.90;;;;;;4112898;28;20331;-60
2021/11/12 07:05:30;;;;;;;91.93;22.93;;;-3.20;99.90;;;;;;4112976;28;20067;-62
2021/11/12 07:07:31;;;;;;;62.30;22.30;;;-3.20;99.90;;;;;;4113938;28;20273;-60
2021/11/12 07:09:33;;;;;;;52.53;22.03;;;-3.20;99.90;;;;;;4112227;28;20280;-61
2021/11/12 07:11:35;;;;;;;52.83;21.43;;;-3.20;99.90;;;;;;4112372;28;20355;-61
2021/11/12 07:13:36;;;;;;;66.27;21.30;;;-3.10;99.90;;;;;;4114308;28;20852;-58
2021/11/12 07:15:38;;;;;;;53.40;20.75;;;-3.10;99.90;;;;;;4121831;28;20322;-62
2021/11/12 07:17:41;;;;;;;61.60;21.23;;;-3.10;99.90;;;;;;4111482;28;20157;-55
2021/11/12 07:19:42;;;;;;;57.47;23.43;;;-3.00;99.90;;;;;;4114715;28;20303;-60
2021/11/12 07:21:43;;;;;;;72.97;22.97;;;-3.00;99.90;;;;;;4112206;28;21060;-62
2021/11/12 07:23:45;;;;;;;62.90;23.13;;;-3.00;99.90;;;;;;4113970;28;20316;-62
2021/11/12 07:25:47;;;;;;;50.27;21.80;;;-2.90;99.90;;;;;;4114980;28;20354;-61
2021/11/12 07:27:50;;;;;;;48.30;20.17;;;-2.90;99.90;;;;;;4121787;28;20823;-58
2021/11/12 07:29:51;;;;;;;54.20;20.77;;;-2.80;99.90;;;;;;4119272;28;20358;-61
2021/11/12 07:31:52;;;;;;;51.80;21.17;;;-2.70;99.90;;;;;;4116165;28;20285;-62
2021/11/12 07:33:58;;;;;;;65.00;26.40;;;-2.60;99.90;;;;;;4118230;28;20289;-66
2021/11/12 07:37:02;;;;;;;49.20;22.43;;;-2.40;99.90;;;;;;4110068;28;20741;-61
2021/11/12 07:38:34;;;;;;;59.25;21.40;;;-2.40;99.90;;;;;;4095171;28;20715;-62
2021/11/12 07:43:05;;;;;;;63.00;20.20;;;-2.60;99.90;;;;;;4110923;28;20358;-61
2021/11/12 07:47:41;;;;;;;58.73;19.43;;;-2.80;99.90;;;;;;4074347;29;20326;-59
2021/11/12 07:49:44;;;;;;;51.83;20.10;;;-2.90;99.90;;;;;;4075042;29;20314;-58
2021/11/12 07:51:45;;;;;;;43.37;18.97;;;-2.90;99.90;;;;;;4112531;28;20676;-60
2021/11/12 07:53:47;;;;;;;51.33;17.83;;;-2.90;99.90;;;;;;4124263;28;20264;-57
2021/11/12 07:55:48;;;;;;;66.13;18.73;;;-2.90;99.90;;;;;;4123850;28;20652;-62
2021/11/12 07:57:49;;;;;;;39.57;17.00;;;-2.90;99.90;;;;;;4125102;28;20304;-58
2021/11/12 07:59:51;;;;;;;78.90;19.27;;;-3.00;99.90;;;;;;4108620;28;20265;-58
2021/11/12 08:01:53;;;;;;;70.53;17.77;;;-3.00;99.90;;;;;;4109449;28;20276;-56
2021/11/12 08:03:56;;;;;;;51.57;18.53;;;-3.10;99.90;;;;;;4117918;28;20277;-57
2021/11/12 08:06:00;;;;;;;49.40;18.07;;;-3.10;99.90;;;;;;4109204;28;20351;-59
2021/11/12 08:08:06;;;;;;;41.23;17.40;;;-3.10;99.90;;;;;;4115449;28;20326;-58
2021/11/12 08:10:10;;;;;;;60.23;18.07;;;-3.00;99.90;;;;;;4122087;28;20637;-59
2021/11/12 08:12:16;;;;;;;62.37;20.37;;;-3.00;99.90;;;;;;4124020;28;20335;-60
2021/11/12 08:20:53;;;;;;;43.27;20.13;;;-2.90;99.90;;;;;;4124758;28;20627;-56
2021/11/12 08:23:04;;;;;;;47.20;18.77;;;-2.90;99.90;;;;;;4123241;28;20323;-60
2021/11/12 08:41:49;;;;;;;64.27;15.63;;;-2.90;99.90;;;;;;4123401;28;20358;-59
2021/11/12 08:44:03;;;;;;;131.73;19.17;;;-3.00;99.90;;;;;;4121974;28;20272;-60
2021/11/12 08:46:28;;;;;;;64.63;16.20;;;-3.10;99.90;;;;;;4125132;28;20780;-58
2021/11/12 08:50:39;;;;;;;38.90;16.38;;;-2.90;99.90;;;;;;4123955;28;20295;-60
2021/11/12 08:52:40;;;;;;;54.37;18.30;;;-2.80;99.90;;;;;;4133743;28;20034;-57
2021/11/12 08:54:44;;;;;;;48.73;18.87;;;-2.70;99.90;;;;;;4129452;28;20697;-57
2021/11/12 08:56:45;;;;;;;40.20;17.83;;;-2.70;99.90;;;;;;4123198;28;20315;-58
2021/11/12 08:58:49;;;;;;;41.80;17.30;;;-2.60;99.90;;;;;;4123417;28;20275;-61
2021/11/12 09:00:51;;;;;;;51.93;20.30;;;-2.50;99.90;;;;;;4123166;28;20326;-60
2021/11/12 09:02:53;;;;;;;38.70;18.00;;;-2.50;99.90;;;;;;4119218;28;20276;-61
2021/11/12 09:04:55;;;;;;;52.93;16.43;;;-2.50;99.90;;;;;;4111612;28;20320;-60
2021/11/12 09:06:57;;;;;;;41.60;16.10;;;-2.50;99.90;;;;;;4108048;28;20288;-60
2021/11/12 09:08:58;;;;;;;29.30;15.17;;;-2.60;99.90;;;;;;4110529;28;20280;-60
2021/11/12 09:11:00;;;;;;;35.27;15.43;;;-2.60;99.90;;;;;;4124260;28;20315;-67
2021/11/12 09:13:20;;;;;;;29.97;14.70;;;-2.60;99.90;;;;;;4111641;28;20677;-58
2021/11/12 09:15:27;;;;;;;47.67;17.20;;;-2.60;99.90;;;;;;4121387;28;20280;-60
2021/11/12 09:17:30;;;;;;;34.40;16.93;;;-2.50;99.90;;;;;;4122121;28;20349;-59
2021/11/12 09:19:32;;;;;;;47.00;20.90;;;-2.50;99.90;;;;;;4123132;28;20295;-59
2021/11/12 09:21:34;;;;;;;57.30;18.60;;;-2.40;99.90;;;;;;4123250;28;20772;-60
2021/11/12 09:23:35;;;;;;;45.47;17.40;;;-2.40;99.90;;;;;;4122632;28;20272;-59
2021/11/12 09:25:36;;;;;;;41.23;17.70;;;-2.40;99.90;;;;;;4114353;28;20335;-61
2021/11/12 09:27:38;;;;;;;41.07;17.10;;;-2.40;99.90;;;;;;4107087;28;20343;-64
2021/11/12 09:29:40;;;;;;;35.60;16.70;;;-2.40;99.90;;;;;;4122202;28;20344;-59
2021/11/12 09:31:42;;;;;;;40.80;18.47;;;-2.40;99.90;;;;;;4115620;28;20354;-60
2021/11/12 09:33:44;;;;;;;41.37;17.73;;;-2.40;99.90;;;;;;4122645;28;20736;-61
2021/11/12 09:35:46;;;;;;;41.33;18.50;;;-2.30;99.90;;;;;;4121209;28;20284;-60
2021/11/12 09:37:48;;;;;;;45.30;19.30;;;-2.30;99.90;;;;;;4124030;28;20346;-62
2021/11/12 09:39:56;;;;;;;44.60;18.33;;;-2.10;99.90;;;;;;4123354;28;20272;-61
2021/11/12 09:41:58;;;;;;;34.47;16.33;;;-2.00;99.90;;;;;;4120335;28;20284;-56
2021/11/12 09:44:02;;;;;;;34.07;17.00;;;-1.90;99.90;;;;;;4108963;28;20273;-60
2021/11/12 09:46:05;;;;;;;51.20;19.97;;;-1.90;99.90;;;;;;4124429;28;20272;-61
2021/11/12 09:48:09;;;;;;;41.30;19.07;;;-1.80;99.90;;;;;;4118447;28;20331;-60
2021/11/12 09:50:14;;;;;;;51.37;21.00;;;-1.80;99.90;;;;;;4127114;28;20323;-61
2021/11/12 09:52:15;;;;;;;47.73;21.47;;;-1.70;99.90;;;;;;4122843;28;20664;-58
2021/11/12 09:54:17;;;;;;;37.57;18.60;;;-1.70;99.90;;;;;;4136943;28;20263;-62
2021/11/12 09:56:18;;;;;;;37.67;18.43;;;-1.70;99.90;;;;;;4139376;28;20275;-60
2021/11/12 09:58:19;;;;;;;37.87;18.37;;;-1.60;99.90;;;;;;4139829;28;20279;-65
2021/11/12 10:00:24;;;;;;;38.57;18.50;;;-1.60;99.90;;;;;;4125349;28;20269;-59
2021/11/12 10:02:28;;;;;;;48.63;19.60;;;-1.40;99.90;;;;;;4107213;28;20696;-58
2021/11/12 10:04:30;;;;;;;35.33;17.27;;;-1.40;99.90;;;;;;4122837;28;20307;-61
2021/11/12 10:06:35;;;;;;;43.57;18.87;;;-1.30;99.90;;;;;;4121231;28;20276;-61
2021/11/12 10:08:38;;;;;;;41.57;18.30;;;-1.30;99.90;;;;;;4124562;28;20291;-62
2021/11/12 10:10:52;;;;;;;51.33;21.17;;;-1.20;99.90;;;;;;4126063;28;20711;-64
2021/11/12 10:12:55;;;;;;;39.83;20.17;;;-1.10;99.90;;;;;;4127261;28;20268;-62
2021/11/12 10:15:12;;;;;;;34.57;17.03;;;-1.00;99.90;;;;;;4128105;28;20767;-60
2021/11/12 10:17:13;;;;;;;33.47;15.20;;;-0.90;99.90;;;;;;4142955;28;21099;-63
2021/11/12 10:19:19;;;;;;;35.30;16.20;;;-1.00;99.90;;;;;;4140596;28;20275;-61
2021/11/12 10:21:27;;;;;;;30.00;15.00;;;-1.00;99.90;;;;;;4142927;28;20272;-60
2021/11/12 10:23:32;;;;;;;37.03;16.63;;;-1.00;99.90;;;;;;4133944;28;20265;-61
2021/11/12 10:25:33;;;;;;;39.07;18.40;;;-0.90;99.90;;;;;;4143253;28;20271;-59
2021/11/12 10:27:35;;;;;;;39.13;17.63;;;-0.90;99.90;;;;;;4133818;28;20365;-59
2021/11/12 10:29:47;;;;;;;35.57;18.50;;;-0.80;99.90;;;;;;4142666;28;20267;-60
2021/11/12 10:32:00;;;;;;;42.03;19.20;;;-0.80;99.90;;;;;;4137646;28;20783;-63
2021/11/12 10:34:01;;;;;;;46.27;21.13;;;-0.70;99.90;;;;;;4125410;28;20672;-61
2021/11/12 10:36:02;;;;;;;43.17;20.63;;;-0.70;99.90;;;;;;4124744;28;20350;-61
2021/11/12 10:38:09;;;;;;;36.50;19.53;;;-0.60;99.90;;;;;;4126187;28;20368;-62
2021/11/12 10:40:17;;;;;;;36.37;19.30;;;-0.40;99.90;;;;;;4124961;28;20772;-60
2021/11/12 10:42:23;;;;;;;36.70;18.23;;;-0.30;99.90;;;;;;4126183;28;20318;-61
2021/11/12 10:44:24;;;;;;;35.03;18.40;;;-0.30;99.90;;;;;;4125199;28;20331;-61
2021/11/12 10:46:36;;;;;;;38.27;19.17;;;-0.30;99.90;;;;;;4121290;28;20277;-58
2021/11/12 10:48:39;;;;;;;40.37;20.50;;;-0.20;99.90;;;;;;4109549;28;20257;-61
2021/11/12 10:50:41;;;;;;;38.30;18.93;;;-0.10;99.90;;;;;;4109760;28;20281;-61
2021/11/12 10:52:44;;;;;;;39.70;20.27;;;-0.10;99.90;;;;;;4110095;28;20311;-59
2021/11/12 10:54:58;;;;;;;41.83;22.27;;;0.00;99.90;;;;;;4109694;28;20269;-59
2021/11/12 10:57:00;;;;;;;38.60;20.07;;;0.00;99.90;;;;;;4109742;28;20323;-62
2021/11/12 10:59:05;;;;;;;39.03;20.03;;;0.00;99.90;;;;;;4118935;28;20268;-61
2021/11/12 11:01:06;;;;;;;43.00;23.33;;;0.10;99.90;;;;;;4125432;28;20272;-57
2021/11/12 11:03:10;;;;;;;41.83;21.73;;;0.20;99.90;;;;;;4125386;28;20268;-62
2021/11/12 11:05:23;;;;;;;36.20;18.53;;;0.30;99.90;;;;;;4128388;28;20264;-62
2021/11/12 11:07:26;;;;;;;37.17;18.17;;;0.10;99.90;;;;;;4123936;28;20280;-59
2021/11/12 11:09:37;;;;;;;37.50;19.30;;;0.10;99.90;;;;;;4121067;28;20283;-61
2021/11/12 11:11:42;;;;;;;43.67;21.63;;;0.20;99.90;;;;;;4125314;28;20350;-63
2021/11/12 11:13:46;;;;;;;36.63;19.37;;;0.20;99.90;;;;;;4126272;28;20261;-62
2021/11/12 11:15:52;;;;;;;36.63;19.23;;;0.30;99.90;;;;;;4124194;28;20747;-62
2021/11/12 11:18:18;;;;;;;46.77;21.97;;;0.30;99.90;;;;;;4121690;28;20326;-59
2021/11/12 11:20:23;;;;;;;37.97;17.43;;;0.30;99.90;;;;;;4124588;28;20743;-59
2021/11/12 11:22:24;;;;;;;32.10;15.50;;;0.20;99.90;;;;;;4110201;28;20261;-59
2021/11/12 11:24:34;;;;;;;32.17;16.27;;;0.20;99.90;;;;;;4113744;28;20272;-64
2021/11/12 11:26:43;;;;;;;35.43;16.73;;;0.20;99.90;;;;;;4124324;28;20310;-60
2021/11/12 11:28:44;;;;;;;34.80;15.87;;;0.30;99.90;;;;;;4125021;28;20720;-62
2021/11/12 11:30:46;;;;;;;31.63;15.53;;;0.30;99.90;;;;;;4125521;28;20300;-60
2021/11/12 11:32:48;;;;;;;27.83;15.40;;;0.40;99.90;;;;;;4124707;28;20660;-61
2021/11/12 11:34:52;;;;;;;37.30;17.37;;;0.40;99.90;;;;;;4129977;28;20306;-61
2021/11/12 11:37:02;;;;;;;27.77;15.27;;;0.50;99.90;;;;;;4134080;28;20276;-62
2021/11/12 11:39:07;;;;;;;59.08;15.88;;;0.40;99.90;;;;;;4125431;28;20291;-61
2021/11/12 11:41:13;;;;;;;30.13;15.57;;;0.40;99.90;;;;;;4123799;28;20038;-61
2021/11/12 11:43:15;;;;;;;36.60;15.87;;;0.40;99.90;;;;;;4124626;28;20351;-59
2021/11/12 11:45:18;;;;;;;36.57;15.47;;;0.30;99.90;;;;;;4124641;28;20272;-61
2021/11/12 11:47:22;;;;;;;33.73;16.03;;;0.30;99.90;;;;;;4125356;28;20275;-61
2021/11/12 11:49:25;;;;;;;34.27;15.57;;;0.40;99.90;;;;;;4123393;28;20323;-59
2021/11/12 11:51:32;;;;;;;29.43;15.60;;;0.40;99.90;;;;;;4124587;28;20354;-61
2021/11/12 11:53:45;;;;;;;31.70;15.03;;;0.40;99.90;;;;;;4121272;28;21076;-63
2021/11/12 11:55:46;;;;;;;51.57;19.10;;;0.40;99.90;;;;;;4111847;28;20273;-60
2021/11/12 11:57:49;;;;;;;37.73;17.17;;;0.40;99.90;;;;;;4108208;28;20292;-63
2021/11/12 12:00:22;;;;;;;64.60;18.13;;;0.40;99.90;;;;;;4120933;28;20321;-59
2021/11/12 12:02:23;;;;;;;48.03;18.27;;;0.40;99.90;;;;;;4124227;28;20296;-63
2021/11/12 12:04:29;;;;;;;105.63;20.50;;;0.40;99.90;;;;;;4126129;28;20326;-60
2021/11/12 12:06:30;;;;;;;68.50;18.73;;;0.50;99.90;;;;;;4122926;28;20358;-61
2021/11/12 12:08:33;;;;;;;39.90;19.67;;;0.50;99.90;;;;;;4123650;28;20341;-62
2021/11/12 12:10:35;;;;;;;42.53;19.40;;;0.50;99.90;;;;;;4123139;28;20252;-61
2021/11/12 12:12:37;;;;;;;70.23;22.27;;;0.60;99.90;;;;;;4117259;28;20315;-63
2021/11/12 12:14:38;;;;;;;45.30;21.73;;;0.60;99.90;;;;;;4110640;28;20268;-64
2021/11/12 12:16:39;;;;;;;41.73;20.00;;;0.60;99.90;;;;;;4133609;28;20345;-58
2021/11/12 12:18:48;;;;;;;42.63;20.70;;;0.70;99.90;;;;;;4139821;28;20256;-61
2021/11/12 12:21:52;;;;;;;49.03;21.43;;;0.70;99.90;;;;;;4123178;28;20342;-62
2021/11/12 13:22:32;;;;;;;54.60;25.30;;;1.30;99.90;;;;;;4124173;28;20334;-61
2021/11/12 13:24:42;;;;;;;74.87;27.40;;;1.30;99.90;;;;;;4122243;28;20315;-62
2021/11/12 13:27:06;;;;;;;77.83;24.43;;;1.40;99.90;;;;;;4121897;28;20256;-61
2021/11/12 13:29:07;;;;;;;56.73;25.77;;;1.40;99.90;;;;;;4123471;28;20334;-57
2021/11/12 13:31:13;;;;;;;142.23;28.10;;;1.30;99.90;;;;;;4122469;28;20767;-63
2021/11/12 13:33:26;;;;;;;62.80;27.83;;;1.30;99.90;;;;;;4126132;28;20339;-62
2021/11/12 13:35:30;;;;;;;69.40;25.23;;;1.40;99.90;;;;;;4138382;28;20272;-62
2021/11/12 13:37:31;;;;;;;52.87;24.07;;;1.40;99.90;;;;;;4139396;28;20271;-63
2021/11/12 13:39:32;;;;;;;71.17;25.90;;;1.40;99.90;;;;;;4140949;28;20390;-65
2021/11/12 13:41:42;;;;;;;55.90;25.77;;;1.40;99.90;;;;;;4128052;28;20284;-62
2021/11/12 13:43:46;;;;;;;57.63;27.58;;;1.30;99.90;;;;;;4127474;28;20346;-62
2021/11/12 13:45:58;;;;;;;62.40;25.43;;;1.40;99.90;;;;;;4126311;28;20162;-58
2021/11/12 13:48:12;;;;;;;62.30;27.70;;;1.40;99.90;;;;;;4126225;28;20272;-63
2021/11/12 13:50:15;;;;;;;64.70;25.83;;;1.40;99.90;;;;;;4125047;28;20272;-61
2021/11/12 13:52:30;;;;;;;51.80;23.27;;;1.40;99.90;;;;;;4125707;28;20346;-61
2021/11/12 13:55:01;;;;;;;51.67;23.27;;;1.40;99.90;;;;;;4125347;28;20350;-60
2021/11/12 13:57:12;;;;;;;54.70;23.70;;;1.50;99.90;;;;;;4125483;28;20295;-61
2021/11/12 13:59:15;;;;;;;66.50;26.23;;;1.50;99.90;;;;;;4126033;28;20350;-62
2021/11/12 14:01:23;;;;;;;105.27;25.87;;;1.50;99.90;;;;;;4126389;28;20319;-61
2021/11/12 14:03:36;;;;;;;68.17;24.50;;;1.50;99.90;;;;;;4124160;28;20316;-62
2021/11/12 14:05:51;;;;;;;84.57;25.80;;;1.50;99.90;;;;;;4127214;28;20740;-62
2021/11/12 14:08:12;;;;;;;136.97;26.70;;;1.50;99.90;;;;;;4125522;28;20291;-60
2021/11/12 14:10:16;;;;;;;69.85;24.73;;;1.50;99.90;;;;;;4126078;28;20350;-64
2021/11/12 14:12:17;;;;;;;129.30;27.67;;;1.50;99.90;;;;;;4125999;28;20042;-62
2021/11/12 14:14:19;;;;;;;103.97;26.17;;;1.50;99.90;;;;;;4127045;28;20327;-61
2021/11/12 14:16:56;;;;;;;270.47;35.07;;;1.50;99.90;;;;;;4125968;28;20272;-63
2021/11/12 14:23:22;;;;;;;68.10;24.57;;;1.50;99.90;;;;;;4127120;28;20382;-62
2021/11/12 14:25:33;;;;;;;235.27;31.80;;;1.60;99.90;;;;;;4125634;28;20272;-61
2021/11/12 14:27:38;;;;;;;75.77;27.47;;;1.60;99.90;;;;;;4124175;28;20284;-60
2021/11/12 14:34:09;;;;;;;129.20;27.27;;;1.60;99.90;;;;;;4124411;28;20331;-62
2021/11/12 14:36:18;;;;;;;215.13;33.37;;;1.50;99.90;;;;;;4125933;28;20684;-62
2021/11/12 14:38:34;;;;;;;127.13;28.10;;;1.50;99.90;;;;;;4125509;28;20280;-62
2021/11/12 14:43:21;;;;;;;95.33;30.23;;;1.60;99.90;;;;;;4124965;28;20319;-62
2021/11/12 14:45:28;;;;;;;69.03;26.93;;;1.50;99.90;;;;;;4126208;28;20669;-59
2021/11/12 14:50:03;;;;;;;86.50;31.43;;;1.60;99.90;;;;;;4126064;28;20817;-62
2021/11/12 14:52:14;;;;;;;92.30;32.83;;;1.60;99.90;;;;;;4124557;28;20307;-62
2021/11/12 14:54:15;;;;;;;107.78;34.97;;;1.70;99.90;;;;;;4124575;28;20268;-62
2021/11/12 14:56:25;;;;;;;97.20;41.50;;;1.60;99.90;;;;;;4123107;28;20041;-62
2021/11/12 14:58:26;;;;;;;87.50;34.00;;;1.70;99.90;;;;;;4125606;28;20685;-62
2021/11/12 15:00:28;;;;;;;72.00;31.27;;;1.70;99.90;;;;;;4116211;28;20062;-60
2021/11/12 15:02:31;;;;;;;85.90;34.73;;;1.70;99.90;;;;;;4107890;28;20273;-62
2021/11/12 15:04:32;;;;;;;108.83;43.47;;;1.80;99.90;;;;;;4108091;28;20693;-63
2021/11/12 15:06:35;;;;;;;72.07;31.37;;;1.80;99.90;;;;;;4109136;28;20297;-65